createdAt,value
2019-05-12T00:01:39.072Z,74.91
2019-05-12T00:04:10.576Z,74.82
2019-05-12T00:06:41.954Z,74.86
2019-05-12T00:09:13.349Z,74.88
2019-05-12T00:11:44.884Z,74.71
2019-05-12T00:14:17.907Z,74.57
2019-05-12T00:16:49.379Z,74.64
2019-05-12T00:19:20.700Z,74.39
2019-05-12T00:21:52.076Z,75.24
2019-05-12T00:24:27.822Z,75.15
2019-05-12T00:27:08.518Z,75.51
2019-05-12T00:29:42.264Z,75.56
2019-05-12T00:32:13.642Z,75.69
2019-05-12T00:34:45.085Z,75.77
2019-05-12T00:37:18.527Z,75.55
2019-05-12T00:39:49.484Z,76.00
2019-05-12T00:42:20.755Z,75.60
2019-05-12T00:44:52.072Z,75.80
2019-05-12T00:47:23.396Z,75.76
2019-05-12T00:49:54.701Z,75.92
2019-05-12T00:52:28.048Z,75.96
2019-05-12T00:54:59.083Z,76.33
2019-05-12T00:57:30.319Z,76.50
2019-05-12T01:00:01.575Z,76.46
2019-05-12T01:02:33.134Z,76.41
2019-05-12T01:05:08.806Z,76.71
2019-05-12T01:07:40.074Z,76.67
2019-05-12T01:10:21.542Z,76.74
2019-05-12T01:12:52.803Z,76.74
2019-05-12T01:15:24.114Z,77.09
2019-05-12T01:17:55.395Z,77.06
2019-05-12T01:20:28.261Z,77.30
2019-05-12T01:22:59.880Z,77.29
2019-05-12T01:25:31.116Z,77.40
2019-05-12T01:28:02.392Z,77.43
2019-05-12T01:30:33.791Z,77.51
2019-05-12T01:33:08.563Z,77.50
2019-05-12T01:35:39.496Z,77.51
2019-05-12T01:38:10.742Z,77.83
2019-05-12T01:40:42.080Z,77.73
2019-05-12T01:43:13.384Z,77.66
2019-05-12T01:45:44.668Z,77.77
2019-05-12T01:48:17.916Z,77.64
2019-05-12T01:50:49.040Z,77.98
2019-05-12T01:53:20.372Z,77.85
2019-05-12T01:55:51.698Z,77.80
2019-05-12T01:58:23.097Z,77.65
2019-05-12T02:00:54.425Z,77.18
2019-05-12T02:03:28.195Z,77.60
2019-05-12T02:06:00.454Z,77.43
2019-05-12T02:08:49.276Z,77.40
2019-05-12T02:11:32.417Z,77.46
2019-05-12T02:14:04.652Z,77.69
2019-05-12T02:16:38.476Z,77.74
2019-05-12T02:19:09.397Z,77.81
2019-05-12T02:21:40.678Z,77.69
2019-05-12T02:24:23.295Z,77.53
2019-05-12T02:26:45.034Z,77.68
2019-05-12T02:29:18.342Z,77.32
2019-05-12T02:31:50.259Z,77.09
2019-05-12T02:34:25.068Z,76.99
2019-05-12T02:36:55.530Z,77.11
2019-05-12T02:39:27.096Z,76.96
2019-05-12T02:41:58.342Z,77.09
2019-05-12T02:44:29.762Z,77.00
2019-05-12T02:47:01.080Z,76.94
2019-05-12T02:49:34.924Z,77.14
2019-05-12T02:52:05.481Z,76.99
2019-05-12T02:54:47.006Z,77.09
2019-05-12T02:57:14.330Z,77.13
2019-05-12T02:59:49.046Z,77.08
2019-05-12T03:02:24.214Z,77.14
2019-05-12T03:04:56.257Z,77.25
2019-05-12T03:07:29.307Z,77.28
2019-05-12T03:10:04.947Z,77.24
2019-05-12T03:12:35.378Z,77.05
2019-05-12T03:15:08.040Z,76.95
2019-05-12T03:17:39.596Z,76.90
2019-05-12T03:20:10.926Z,76.93
2019-05-12T03:22:44.907Z,76.76
2019-05-12T03:25:24.279Z,76.74
2019-05-12T03:27:49.377Z,76.75
2019-05-12T03:30:20.680Z,76.61
2019-05-12T03:32:58.104Z,76.59
2019-05-12T03:35:32.585Z,76.39
2019-05-12T03:37:59.059Z,76.22
2019-05-12T03:40:30.458Z,76.20
2019-05-12T03:43:05.034Z,76.09
2019-05-12T03:45:36.101Z,76.37
2019-05-12T03:48:08.251Z,76.14
2019-05-12T03:50:39.506Z,76.48
2019-05-12T03:53:11.341Z,76.44
2019-05-12T03:55:46.805Z,76.47
2019-05-12T03:58:16.422Z,76.68
2019-05-12T04:00:47.854Z,76.52
2019-05-12T04:03:19.205Z,76.71
2019-05-12T04:05:51.503Z,76.83
2019-05-12T04:08:24.672Z,76.68
2019-05-12T04:10:56.009Z,76.91
2019-05-12T04:13:27.249Z,77.05
2019-05-12T04:15:58.500Z,77.16
2019-05-12T04:18:29.754Z,77.14
2019-05-12T04:21:00.986Z,77.19
2019-05-12T04:23:34.867Z,77.39
2019-05-12T04:26:11.733Z,77.30
2019-05-12T04:28:38.783Z,77.15
2019-05-12T04:31:10.014Z,77.24
2019-05-12T04:33:41.340Z,77.33
2019-05-12T04:36:14.801Z,77.35
2019-05-12T04:38:46.020Z,77.30
2019-05-12T04:41:19.768Z,77.23
2019-05-12T04:43:50.334Z,76.91
2019-05-12T04:46:24.999Z,76.82
2019-05-12T04:48:55.058Z,76.88
2019-05-12T04:51:26.312Z,76.84
2019-05-12T04:54:00.512Z,76.67
2019-05-12T04:56:35.429Z,76.56
2019-05-12T04:59:05.270Z,76.62
2019-05-12T05:01:36.924Z,76.72
2019-05-12T05:04:08.149Z,76.27
2019-05-12T05:06:39.508Z,76.30
2019-05-12T05:09:10.774Z,76.43
2019-05-12T05:11:44.791Z,76.11
2019-05-12T05:14:15.101Z,76.63
2019-05-12T05:16:46.533Z,76.49
2019-05-12T05:19:17.792Z,75.74
2019-05-12T05:21:49.058Z,75.59
2019-05-12T05:24:20.401Z,75.12
2019-05-12T05:26:53.780Z,75.27
2019-05-12T05:29:24.810Z,74.78
2019-05-12T05:31:56.111Z,74.62
2019-05-12T05:34:37.752Z,74.40
2019-05-12T05:37:09.070Z,73.84
2019-05-12T05:39:49.758Z,73.34
2019-05-12T05:42:22.031Z,72.89
2019-05-12T05:44:54.384Z,73.25
2019-05-12T05:47:28.567Z,73.03
2019-05-12T05:49:59.053Z,73.03
2019-05-12T05:52:37.033Z,71.80
2019-05-12T05:55:15.673Z,72.47
2019-05-12T05:57:44.499Z,72.34
2019-05-12T06:00:22.978Z,71.85
2019-05-12T06:02:50.525Z,71.76
2019-05-12T06:05:26.365Z,71.75
2019-05-12T06:07:55.084Z,71.83
2019-05-12T06:10:35.309Z,70.83
2019-05-12T06:12:59.262Z,70.29
2019-05-12T06:15:35.976Z,71.11
2019-05-12T06:18:03.945Z,70.88
2019-05-12T06:20:38.134Z,71.29
2019-05-12T06:23:08.727Z,71.03
2019-05-12T06:25:48.403Z,71.32
2019-05-12T06:28:18.588Z,71.33
2019-05-12T06:30:58.275Z,71.46
2019-05-12T06:33:31.584Z,71.21
2019-05-12T06:36:03.773Z,70.03
2019-05-12T06:38:37.124Z,70.82
2019-05-12T06:41:20.275Z,70.75
2019-05-12T06:43:49.315Z,71.18
2019-05-12T06:46:23.095Z,71.00
2019-05-12T06:48:54.464Z,70.20
2019-05-12T06:51:25.995Z,68.97
2019-05-12T06:54:00.876Z,69.53
2019-05-12T06:56:34.242Z,69.15
2019-05-12T06:59:10.316Z,68.67
2019-05-12T07:01:40.111Z,68.52
2019-05-12T07:04:11.416Z,68.53
2019-05-12T07:06:44.110Z,69.03
2019-05-12T07:09:24.247Z,66.22
2019-05-12T07:11:58.840Z,66.07
2019-05-12T07:14:27.210Z,67.36
2019-05-12T07:17:02.841Z,66.99
2019-05-12T07:19:33.869Z,66.98
2019-05-12T07:22:18.066Z,66.58
2019-05-12T07:24:40.986Z,65.81
2019-05-12T07:27:11.357Z,66.49
2019-05-12T07:29:43.587Z,65.46
2019-05-12T07:32:21.523Z,64.70
2019-05-12T07:34:48.612Z,64.97
2019-05-12T07:37:23.177Z,65.86
2019-05-12T07:39:55.546Z,64.58
2019-05-12T07:42:31.663Z,65.35
2019-05-12T07:45:03.932Z,64.95
2019-05-12T07:47:35.507Z,63.93
2019-05-12T07:50:16.262Z,65.72
2019-05-12T07:52:44.238Z,64.72
2019-05-12T07:55:15.834Z,64.55
2019-05-12T07:57:55.352Z,63.61
2019-05-12T08:00:22.746Z,64.91
2019-05-12T08:02:55.192Z,64.06
2019-05-12T08:05:26.412Z,63.69
2019-05-12T08:08:00.525Z,64.83
2019-05-12T08:10:30.699Z,64.03
2019-05-12T08:13:19.629Z,63.25
2019-05-12T08:15:39.826Z,64.48
2019-05-12T08:18:11.315Z,64.36
2019-05-12T08:20:45.833Z,64.05
2019-05-12T08:23:17.431Z,64.96
2019-05-12T08:25:53.393Z,64.92
2019-05-12T08:28:34.904Z,64.61
2019-05-12T08:31:00.084Z,63.82
2019-05-12T08:33:34.960Z,64.48
2019-05-12T08:36:11.265Z,63.67
2019-05-12T08:38:47.166Z,64.71
2019-05-12T08:41:23.500Z,64.95
2019-05-12T08:43:58.640Z,64.59
2019-05-12T08:46:34.389Z,64.75
2019-05-12T08:49:17.578Z,64.61
2019-05-12T08:51:58.735Z,65.40
2019-05-12T08:54:28.293Z,65.40
2019-05-12T08:57:03.865Z,65.33
2019-05-12T08:59:36.808Z,65.50
2019-05-12T09:02:13.978Z,63.90
2019-05-12T09:04:51.465Z,64.41
2019-05-12T09:07:17.526Z,64.59
2019-05-12T09:09:49.145Z,65.23
2019-05-12T09:12:25.647Z,64.77
2019-05-12T09:15:04.320Z,64.82
2019-05-12T09:17:49.114Z,64.67
2019-05-12T09:20:13.707Z,64.37
2019-05-12T09:22:45.223Z,62.36
2019-05-12T09:25:19.669Z,63.92
2019-05-12T09:27:51.322Z,62.00
2019-05-12T09:30:30.663Z,61.56
2019-05-12T09:33:21.521Z,64.78
2019-05-12T09:35:56.224Z,62.25
2019-05-12T09:38:33.139Z,61.31
2019-05-12T09:41:05.418Z,62.65
2019-05-12T09:43:40.282Z,62.43
2019-05-12T09:46:16.114Z,59.70
2019-05-12T09:48:52.075Z,60.66
2019-05-12T09:51:25.796Z,58.75
2019-05-12T09:53:57.253Z,58.76
2019-05-12T09:56:30.691Z,60.14
2019-05-12T09:59:19.102Z,59.88
2019-05-12T10:01:47.071Z,57.81
2019-05-12T10:04:19.747Z,59.76
2019-05-12T10:06:54.012Z,58.41
2019-05-12T10:09:27.196Z,58.79
2019-05-12T10:12:00.576Z,58.31
2019-05-12T10:14:32.924Z,56.96
2019-05-12T10:17:04.437Z,59.40
2019-05-12T10:19:39.540Z,58.41
2019-05-12T10:22:10.940Z,59.83
2019-05-12T10:24:55.246Z,57.06
2019-05-12T10:27:21.247Z,57.98
2019-05-12T10:29:49.332Z,55.94
2019-05-12T10:32:25.202Z,53.52
2019-05-12T10:34:56.469Z,53.44
2019-05-12T10:37:29.658Z,51.88
2019-05-12T10:40:03.545Z,55.56
2019-05-12T10:42:34.170Z,56.39
2019-05-12T10:45:10.758Z,52.91
2019-05-12T10:47:43.987Z,51.83
2019-05-12T10:50:15.629Z,52.90
2019-05-12T10:52:47.103Z,52.57
2019-05-12T10:55:18.861Z,54.71
2019-05-12T10:57:52.896Z,52.88
2019-05-12T11:00:25.471Z,52.71
2019-05-12T11:03:01.633Z,51.24
2019-05-12T11:05:33.672Z,50.38
2019-05-12T11:08:11.040Z,52.38
2019-05-12T11:10:44.635Z,52.35
2019-05-12T11:13:23.331Z,51.84
2019-05-12T11:15:59.379Z,53.08
2019-05-12T11:18:43.588Z,52.50
2019-05-12T11:21:22.578Z,55.29
2019-05-12T11:23:55.685Z,53.30
2019-05-12T11:26:36.286Z,53.50
2019-05-12T11:33:07.971Z,52.80
2019-05-12T11:35:45.349Z,50.53
2019-05-12T11:38:33.774Z,51.02
2019-05-12T11:41:20.273Z,48.27
2019-05-12T11:43:56.376Z,51.08
2019-05-12T11:46:33.489Z,52.14
2019-05-12T11:49:04.385Z,49.11
2019-05-12T11:51:36.030Z,49.93
2019-05-12T11:54:08.936Z,47.49
2019-05-12T11:56:46.640Z,49.81
2019-05-12T11:59:18.345Z,45.59
2019-05-12T12:01:53.121Z,47.28
2019-05-12T12:04:29.211Z,48.10
2019-05-12T12:07:10.682Z,46.61
2019-05-12T12:09:43.861Z,48.09
2019-05-12T12:12:15.575Z,48.02
2019-05-12T12:14:50.419Z,43.40
2019-05-12T12:17:25.090Z,44.00
2019-05-12T12:19:54.437Z,42.91
2019-05-12T12:22:29.702Z,42.86
2019-05-12T12:25:10.705Z,44.77
2019-05-12T12:27:44.231Z,43.48
2019-05-12T12:30:19.685Z,44.40
2019-05-12T12:32:50.417Z,42.99
2019-05-12T12:35:23.408Z,43.25
2019-05-12T12:37:56.687Z,43.42
2019-05-12T12:40:32.953Z,44.38
2019-05-12T12:43:25.778Z,46.09
2019-05-12T12:46:03.522Z,43.94
2019-05-12T12:48:44.010Z,41.75
2019-05-12T12:51:20.635Z,42.83
2019-05-12T12:53:54.024Z,42.76
2019-05-12T12:56:30.023Z,43.33
2019-05-12T12:59:10.405Z,43.55
2019-05-12T13:01:37.676Z,43.38
2019-05-12T13:04:09.156Z,40.54
2019-05-12T13:06:40.417Z,42.86
2019-05-12T13:09:18.485Z,39.32
2019-05-12T13:11:45.165Z,42.90
2019-05-12T13:14:36.531Z,41.13
2019-05-12T13:16:57.759Z,41.94
2019-05-12T13:19:29.264Z,43.68
2019-05-12T13:22:03.593Z,41.99
2019-05-12T13:24:34.579Z,40.54
2019-05-12T13:27:06.035Z,39.45
2019-05-12T13:29:39.734Z,39.56
2019-05-12T13:32:13.734Z,40.44
2019-05-12T13:34:44.966Z,41.02
2019-05-12T13:37:19.384Z,42.76
2019-05-12T13:39:57.022Z,41.80
2019-05-12T13:42:24.163Z,42.75
2019-05-12T13:44:55.724Z,40.99
2019-05-12T13:47:29.019Z,43.25
2019-05-12T13:50:05.459Z,38.39
2019-05-12T13:52:36.828Z,38.76
2019-05-12T13:55:08.349Z,38.97
2019-05-12T13:57:46.587Z,40.25
2019-05-12T14:00:14.049Z,41.09
2019-05-12T14:02:48.838Z,39.75
2019-05-12T14:05:18.915Z,38.77
2019-05-12T14:07:57.687Z,38.20
2019-05-12T14:10:29.335Z,40.44
2019-05-12T14:13:00.633Z,40.03
2019-05-12T14:15:34.076Z,37.77
2019-05-12T14:18:05.323Z,37.30
2019-05-12T14:20:36.828Z,38.37
2019-05-12T14:23:08.164Z,39.54
2019-05-12T14:25:43.142Z,38.51
2019-05-12T14:28:17.740Z,38.15
2019-05-12T14:31:00.869Z,36.65
2019-05-12T14:37:10.853Z,38.51
2019-05-12T14:39:46.232Z,37.92
2019-05-12T14:42:17.513Z,38.73
2019-05-12T14:44:50.650Z,38.25
2019-05-12T14:47:29.880Z,38.23
2019-05-12T14:50:16.140Z,37.99
2019-05-12T14:53:03.581Z,37.30
2019-05-12T14:55:39.716Z,37.38
2019-05-12T14:58:25.497Z,37.98
2019-05-12T15:01:05.028Z,35.71
2019-05-12T15:06:35.336Z,37.43
2019-05-12T15:09:11.411Z,35.05
2019-05-12T15:11:46.106Z,36.00
2019-05-12T15:14:17.418Z,35.83
2019-05-12T15:16:49.971Z,35.76
2019-05-12T15:19:27.903Z,35.15
2019-05-12T15:21:54.280Z,34.88
2019-05-12T15:24:28.480Z,33.29
2019-05-12T15:27:00.848Z,35.26
2019-05-12T15:29:33.833Z,34.57
2019-05-12T15:32:05.375Z,34.68
2019-05-12T15:34:36.727Z,33.96
2019-05-12T15:37:08.110Z,32.50
2019-05-12T15:39:53.473Z,32.87
2019-05-12T15:42:24.345Z,33.21
2019-05-12T15:44:55.629Z,36.15
2019-05-12T15:47:30.078Z,34.28
2019-05-12T15:50:01.129Z,34.89
2019-05-12T15:52:38.290Z,35.94
2019-05-12T15:55:08.269Z,32.78
2019-05-12T15:57:39.618Z,32.64
2019-05-12T16:00:13.835Z,31.41
2019-05-12T16:02:44.586Z,31.68
2019-05-12T16:05:20.015Z,31.41
2019-05-12T16:07:49.345Z,33.12
2019-05-12T16:10:20.885Z,33.92
2019-05-12T16:12:52.269Z,32.89
2019-05-12T16:15:29.385Z,32.02
2019-05-12T16:18:08.141Z,33.88
2019-05-12T16:20:34.169Z,34.73
2019-05-12T16:23:25.109Z,33.53
2019-05-12T16:25:50.868Z,32.69
2019-05-12T16:28:24.279Z,33.15
2019-05-12T16:30:58.918Z,34.90
2019-05-12T16:33:28.643Z,33.59
2019-05-12T16:36:05.637Z,33.67
2019-05-12T16:38:32.904Z,34.57
2019-05-12T16:41:04.438Z,33.90
2019-05-12T16:43:36.750Z,33.75
2019-05-12T16:46:08.199Z,33.61
2019-05-12T16:48:42.217Z,34.47
2019-05-12T16:51:13.901Z,33.50
2019-05-12T16:53:45.414Z,32.27
2019-05-12T16:56:20.002Z,32.09
2019-05-12T16:58:50.984Z,33.61
2019-05-12T17:01:26.073Z,32.38
2019-05-12T17:03:55.480Z,32.48
2019-05-12T17:06:28.873Z,32.34
2019-05-12T17:08:59.987Z,33.52
2019-05-12T17:11:31.396Z,32.84
2019-05-12T17:14:04.962Z,33.41
2019-05-12T17:16:41.837Z,33.37
2019-05-12T17:19:10.651Z,33.00
2019-05-12T17:21:44.064Z,32.67
2019-05-12T17:24:15.150Z,33.53
2019-05-12T17:26:46.741Z,34.07
2019-05-12T17:29:18.229Z,33.52
2019-05-12T17:31:49.509Z,34.56
2019-05-12T17:34:23.525Z,34.61
2019-05-12T17:37:00.360Z,36.01
2019-05-12T17:39:34.381Z,34.64
2019-05-12T17:42:02.323Z,35.38
2019-05-12T17:44:36.792Z,34.37
2019-05-12T17:47:06.599Z,34.49
2019-05-12T17:49:45.762Z,34.34
2019-05-12T17:52:18.763Z,34.32
2019-05-12T17:54:50.199Z,35.19
2019-05-12T17:57:23.502Z,35.88
2019-05-12T17:59:59.836Z,35.97
2019-05-12T18:02:27.881Z,36.13
2019-05-12T18:05:00.952Z,36.55
2019-05-12T18:07:34.418Z,36.37
2019-05-12T18:10:08.517Z,37.34
2019-05-12T18:12:44.771Z,37.13
2019-05-12T18:15:15.375Z,37.84
2019-05-12T18:17:49.821Z,37.73
2019-05-12T18:20:20.282Z,38.55
2019-05-12T18:22:53.579Z,38.33
2019-05-12T18:25:30.538Z,38.41
2019-05-12T18:27:57.797Z,39.35
2019-05-12T18:30:31.128Z,39.76
2019-05-12T18:33:04.879Z,40.00
2019-05-12T18:35:35.399Z,40.70
2019-05-12T18:38:07.909Z,40.79
2019-05-12T18:40:39.972Z,42.78
2019-05-12T18:43:13.946Z,42.12
2019-05-12T18:45:48.994Z,43.37
2019-05-12T18:48:21.990Z,42.56
2019-05-12T18:50:50.751Z,41.56
2019-05-12T18:53:27.958Z,42.17
2019-05-12T18:55:55.307Z,42.11
2019-05-12T18:58:31.210Z,42.54
2019-05-12T19:01:03.523Z,43.48
2019-05-12T19:03:47.156Z,43.82
2019-05-12T19:06:08.211Z,43.66
2019-05-12T19:08:39.716Z,44.79
2019-05-12T19:11:20.137Z,45.37
2019-05-12T19:13:51.595Z,45.81
2019-05-12T19:16:17.279Z,45.59
2019-05-12T19:18:48.666Z,46.67
2019-05-12T19:21:23.690Z,46.79
2019-05-12T19:23:56.098Z,47.32
2019-05-12T19:26:27.419Z,47.35
2019-05-12T19:28:58.742Z,47.52
2019-05-12T19:31:30.250Z,47.53
2019-05-12T19:34:18.104Z,47.62
2019-05-12T19:36:47.489Z,48.21
2019-05-12T19:39:13.762Z,48.04
2019-05-12T19:41:45.086Z,49.15
2019-05-12T19:44:19.980Z,48.42
2019-05-12T19:46:49.705Z,49.74
2019-05-12T19:49:25.916Z,48.80
2019-05-12T19:51:54.450Z,49.02
2019-05-12T19:54:30.242Z,48.13
2019-05-12T19:56:58.771Z,48.14
2019-05-12T19:59:30.036Z,48.02
2019-05-12T20:02:03.884Z,47.55
2019-05-12T20:04:42.122Z,46.93
2019-05-12T20:07:07.741Z,47.48
2019-05-12T20:09:39.666Z,47.28
2019-05-12T20:12:18.031Z,47.07
2019-05-12T20:14:44.059Z,47.46
2019-05-12T20:17:16.202Z,47.76
2019-05-12T20:19:47.657Z,48.89
2019-05-12T20:22:19.082Z,50.78
2019-05-12T20:24:50.567Z,50.50
2019-05-12T20:27:28.093Z,50.85
2019-05-12T20:30:00.559Z,51.41
2019-05-12T20:32:34.267Z,52.04
2019-05-12T20:35:11.223Z,52.20
2019-05-12T20:37:44.154Z,52.80
2019-05-12T20:40:16.422Z,52.62
2019-05-12T20:43:07.277Z,53.64
2019-05-12T20:45:25.300Z,53.20
2019-05-12T20:47:54.373Z,53.62
2019-05-12T20:50:32.506Z,54.97
2019-05-12T20:52:59.217Z,53.31
2019-05-12T20:55:36.574Z,54.06
2019-05-12T20:58:04.467Z,53.10
2019-05-12T21:00:38.982Z,55.19
2019-05-12T21:03:09.779Z,53.94
2019-05-12T21:05:41.234Z,54.68
2019-05-12T21:08:15.279Z,54.11
2019-05-12T21:10:45.971Z,54.56
2019-05-12T21:13:20.584Z,55.42
2019-05-12T21:15:50.423Z,55.06
2019-05-12T21:18:23.594Z,55.89
2019-05-12T21:20:55.045Z,56.06
2019-05-12T21:23:26.425Z,55.84
2019-05-12T21:25:58.391Z,56.82
2019-05-12T21:28:30.140Z,56.01
2019-05-12T21:31:03.514Z,56.41
2019-05-12T21:33:39.958Z,55.85
2019-05-12T21:36:07.491Z,56.25
2019-05-12T21:38:38.879Z,56.29
2019-05-12T21:41:10.386Z,56.40
2019-05-12T21:43:43.408Z,56.44
2019-05-12T21:46:15.495Z,56.72
2019-05-12T21:48:48.129Z,56.28
2019-05-12T21:51:20.158Z,56.68
2019-05-12T21:53:56.128Z,56.29
2019-05-12T21:56:24.675Z,56.35
2019-05-12T21:58:58.194Z,56.22
2019-05-12T22:01:36.791Z,56.96
2019-05-12T22:04:05.336Z,57.25
2019-05-12T22:06:35.792Z,56.90
2019-05-12T22:09:08.741Z,57.00
2019-05-12T22:11:43.961Z,57.17
2019-05-12T22:14:13.655Z,57.70
2019-05-12T22:16:47.011Z,58.02
2019-05-12T22:19:18.480Z,57.55
2019-05-12T22:21:49.849Z,58.20
2019-05-12T22:24:27.499Z,57.67
2019-05-12T22:26:54.425Z,57.82
2019-05-12T22:29:30.034Z,58.11
2019-05-12T22:31:58.838Z,58.63
2019-05-12T22:34:37.033Z,58.01
2019-05-12T22:37:03.848Z,58.69
2019-05-12T22:39:36.484Z,58.86
2019-05-12T22:42:11.625Z,58.66
2019-05-12T22:44:40.904Z,58.72
2019-05-12T22:47:15.775Z,60.17
2019-05-12T22:49:45.163Z,59.15
2019-05-12T22:52:17.462Z,59.43
2019-05-12T22:54:50.962Z,59.09
2019-05-12T22:57:24.171Z,59.92
2019-05-12T22:59:55.187Z,60.09
2019-05-12T23:02:29.983Z,60.02
2019-05-12T23:05:00.673Z,61.08
2019-05-12T23:07:33.123Z,60.56
2019-05-12T23:10:10.892Z,60.50
2019-05-12T23:12:39.745Z,60.60
2019-05-12T23:15:13.663Z,61.98
2019-05-12T23:17:49.213Z,61.53
2019-05-12T23:20:19.446Z,61.41
2019-05-12T23:22:50.784Z,62.00
2019-05-12T23:25:24.290Z,61.74
2019-05-12T23:28:00.494Z,62.31
2019-05-12T23:30:28.683Z,61.84
2019-05-12T23:32:59.981Z,62.00
2019-05-12T23:35:37.755Z,62.51
2019-05-12T23:38:04.627Z,62.70
2019-05-12T23:40:36.053Z,62.97
2019-05-12T23:43:07.409Z,62.99
2019-05-12T23:45:38.702Z,63.06
2019-05-12T23:48:09.960Z,63.60
2019-05-12T23:50:43.684Z,63.23
2019-05-12T23:53:14.367Z,63.63
2019-05-12T23:55:45.827Z,63.90
2019-05-12T23:58:17.089Z,64.05
